Amarante, Brazil
Current Conditions -  °F | °C
As of 12:00 AM on Sunday 25 Jan 2015 (Local Time) from SBTE Reporting Station
Broken Clouds Broken Clouds  
Wind Chill: 77°   Ceiling: 8000
Heat Index: 78°   Visibility: 6mi
Dew Point: 75°   Wind: 5mph
Humidity: 94%   Direction: 320°NW
Pressure: 29.85"   Gusts: NA
Location:  6.24°S, 42.85°W
Report Text: SBTE 250300Z 32004KT 9999 SCT030 BKN080 25/24 Q1011 RETS
Loading
Personal Weather Stations






























Interactive Weather Map New forecast layout! Learn more

10-Day Weather Forecast

Advertisements
Track Severe Weather on mobile